Naples, Florida
Current Conditions -  °F | °C
As of 4:53 PM on Thursday 27 Nov 2014 (Local Time) from KAPF Reporting Station
Clear Clear  
Wind Chill: 21°   Ceiling: Unl
Heat Index: 21°   Visibility: 10mi
Dew Point: 13°   Wind: 8mph
Humidity: 63%   Direction: 310°NW
Pressure: 30.18"   Gusts: NA
Location:  26.14°N, 81.79°W
Report Text: KAPF 272153Z 31007KT 10SM CLR 21/13 A3018 RMK AO2 SLP219 T02060133
Loading
Personal Weather Stations






























Interactive Weather Map New forecast layout! Learn more

10-Day Weather Forecast

Advertisements
Track Severe Weather on mobile